sensor_id;sensor_type;location;lat;lon;timestamp;pressure;altitude;pressure_sealevel;temperature;humidity
73566;BME280;61846;52.970;-3.168;2023-12-20T00:00:18;101042.89;;;7.14;53.21
73566;BME280;61846;52.970;-3.168;2023-12-20T00:02:43;101037.75;;;7.33;53.55
73566;BME280;61846;52.970;-3.168;2023-12-20T00:05:08;101030.86;;;7.26;53.41
73566;BME280;61846;52.970;-3.168;2023-12-20T00:07:34;101032.53;;;6.95;54.12
73566;BME280;61846;52.970;-3.168;2023-12-20T00:10:00;101032.37;;;7.65;53.35
73566;BME280;61846;52.970;-3.168;2023-12-20T00:12:25;101029.05;;;7.89;52.53
73566;BME280;61846;52.970;-3.168;2023-12-20T00:14:51;101023.80;;;8.42;50.51
73566;BME280;61846;52.970;-3.168;2023-12-20T00:17:16;101023.87;;;7.66;51.96
73566;BME280;61846;52.970;-3.168;2023-12-20T00:19:42;101019.79;;;8.82;49.73
73566;BME280;61846;52.970;-3.168;2023-12-20T00:22:08;101016.34;;;8.89;48.80
73566;BME280;61846;52.970;-3.168;2023-12-20T00:24:33;101007.18;;;8.60;49.55
73566;BME280;61846;52.970;-3.168;2023-12-20T00:26:59;100998.83;;;8.95;48.77
73566;BME280;61846;52.970;-3.168;2023-12-20T00:29:24;101006.13;;;8.18;50.39
73566;BME280;61846;52.970;-3.168;2023-12-20T00:31:50;100999.50;;;8.28;51.09
73566;BME280;61846;52.970;-3.168;2023-12-20T00:34:16;101000.63;;;7.88;52.11
73566;BME280;61846;52.970;-3.168;2023-12-20T00:36:41;101007.90;;;7.46;53.65
73566;BME280;61846;52.970;-3.168;2023-12-20T00:39:07;101003.46;;;7.17;54.72
73566;BME280;61846;52.970;-3.168;2023-12-20T00:41:32;101006.11;;;8.11;52.77
73566;BME280;61846;52.970;-3.168;2023-12-20T00:43:58;100994.35;;;8.52;50.98
73566;BME280;61846;52.970;-3.168;2023-12-20T00:46:23;100985.27;;;8.95;49.60
73566;BME280;61846;52.970;-3.168;2023-12-20T00:48:48;100989.98;;;9.53;48.60
73566;BME280;61846;52.970;-3.168;2023-12-20T00:51:14;100982.10;;;9.48;47.41
73566;BME280;61846;52.970;-3.168;2023-12-20T00:53:40;101007.83;;;8.55;50.72
73566;BME280;61846;52.970;-3.168;2023-12-20T00:56:05;101005.79;;;8.37;51.18
73566;BME280;61846;52.970;-3.168;2023-12-20T00:58:30;101001.10;;;8.40;51.47
73566;BME280;61846;52.970;-3.168;2023-12-20T01:00:56;101006.26;;;8.96;49.58
73566;BME280;61846;52.970;-3.168;2023-12-20T01:03:22;100995.66;;;8.61;50.09
73566;BME280;61846;52.970;-3.168;2023-12-20T01:05:47;100988.58;;;8.53;50.53
73566;BME280;61846;52.970;-3.168;2023-12-20T01:08:13;100981.35;;;8.83;50.32
73566;BME280;61846;52.970;-3.168;2023-12-20T01:10:38;100975.57;;;8.47;50.36
73566;BME280;61846;52.970;-3.168;2023-12-20T01:13:04;100988.98;;;9.06;49.82
73566;BME280;61846;52.970;-3.168;2023-12-20T01:15:29;100994.67;;;8.47;50.71
73566;BME280;61846;52.970;-3.168;2023-12-20T01:17:55;100988.65;;;7.44;55.14
73566;BME280;61846;52.970;-3.168;2023-12-20T01:20:20;100992.19;;;7.14;55.86
73566;BME280;61846;52.970;-3.168;2023-12-20T01:22:46;100996.76;;;8.14;54.22
73566;BME280;61846;52.970;-3.168;2023-12-20T01:25:11;100995.89;;;8.69;53.07
73566;BME280;61846;52.970;-3.168;2023-12-20T01:27:37;101002.31;;;7.59;54.98
73566;BME280;61846;52.970;-3.168;2023-12-20T01:30:03;100999.83;;;8.17;53.98
73566;BME280;61846;52.970;-3.168;2023-12-20T01:32:28;100997.57;;;8.90;52.28
73566;BME280;61846;52.970;-3.168;2023-12-20T01:34:55;100989.38;;;9.32;50.68
73566;BME280;61846;52.970;-3.168;2023-12-20T01:37:19;100978.42;;;8.65;51.42
73566;BME280;61846;52.970;-3.168;2023-12-20T01:39:45;100973.15;;;8.98;51.72
73566;BME280;61846;52.970;-3.168;2023-12-20T01:42:10;100962.35;;;8.80;51.13
73566;BME280;61846;52.970;-3.168;2023-12-20T01:44:36;100962.55;;;8.80;52.00
73566;BME280;61846;52.970;-3.168;2023-12-20T01:47:02;100956.15;;;9.45;49.85
73566;BME280;61846;52.970;-3.168;2023-12-20T01:49:27;100950.98;;;9.14;50.38
73566;BME280;61846;52.970;-3.168;2023-12-20T01:51:53;100946.49;;;9.70;49.29
73566;BME280;61846;52.970;-3.168;2023-12-20T01:54:19;100948.58;;;10.07;48.20
73566;BME280;61846;52.970;-3.168;2023-12-20T01:56:44;100946.96;;;10.11;47.60
73566;BME280;61846;52.970;-3.168;2023-12-20T01:59:09;100949.12;;;10.57;46.06
73566;BME280;61846;52.970;-3.168;2023-12-20T02:01:35;100954.95;;;11.03;44.93
73566;BME280;61846;52.970;-3.168;2023-12-20T02:04:00;100959.23;;;11.61;44.23
73566;BME280;61846;52.970;-3.168;2023-12-20T02:06:30;100965.48;;;10.13;46.05
73566;BME280;61846;52.970;-3.168;2023-12-20T02:08:51;100973.94;;;10.20;46.09
73566;BME280;61846;52.970;-3.168;2023-12-20T02:11:17;100972.40;;;10.41;46.09
73566;BME280;61846;52.970;-3.168;2023-12-20T02:13:42;100978.35;;;9.94;46.69
73566;BME280;61846;52.970;-3.168;2023-12-20T02:16:08;100973.97;;;10.61;46.28
73566;BME280;61846;52.970;-3.168;2023-12-20T02:18:33;100975.91;;;9.35;48.82
73566;BME280;61846;52.970;-3.168;2023-12-20T02:20:59;100972.31;;;8.60;51.68
73566;BME280;61846;52.970;-3.168;2023-12-20T02:23:24;100969.42;;;9.43;49.87
73566;BME280;61846;52.970;-3.168;2023-12-20T02:25:50;100968.62;;;9.82;49.27
73566;BME280;61846;52.970;-3.168;2023-12-20T02:28:16;100969.39;;;8.77;53.37
73566;BME280;61846;52.970;-3.168;2023-12-20T02:30:41;100973.02;;;9.02;53.76
73566;BME280;61846;52.970;-3.168;2023-12-20T02:33:08;100959.41;;;8.45;54.86
73566;BME280;61846;52.970;-3.168;2023-12-20T02:35:32;100975.46;;;8.22;55.59
73566;BME280;61846;52.970;-3.168;2023-12-20T02:37:58;100980.72;;;9.12;53.22
73566;BME280;61846;52.970;-3.168;2023-12-20T02:40:23;100984.14;;;8.92;53.70
73566;BME280;61846;52.970;-3.168;2023-12-20T02:42:49;100979.13;;;8.75;54.95
73566;BME280;61846;52.970;-3.168;2023-12-20T02:45:15;100983.65;;;8.82;54.79
73566;BME280;61846;52.970;-3.168;2023-12-20T02:47:40;100974.03;;;8.52;56.20
73566;BME280;61846;52.970;-3.168;2023-12-20T02:50:06;100969.41;;;9.47;53.32
73566;BME280;61846;52.970;-3.168;2023-12-20T02:52:31;100967.84;;;8.76;54.64
73566;BME280;61846;52.970;-3.168;2023-12-20T02:54:56;100970.84;;;9.17;54.65
73566;BME280;61846;52.970;-3.168;2023-12-20T02:57:22;100967.26;;;9.63;54.29
73566;BME280;61846;52.970;-3.168;2023-12-20T02:59:48;100969.00;;;9.65;53.21
73566;BME280;61846;52.970;-3.168;2023-12-20T03:02:13;100966.86;;;8.61;55.68
73566;BME280;61846;52.970;-3.168;2023-12-20T03:04:39;100960.75;;;9.38;53.92
73566;BME280;61846;52.970;-3.168;2023-12-20T03:07:04;100946.67;;;9.67;53.24
73566;BME280;61846;52.970;-3.168;2023-12-20T03:09:30;100965.81;;;9.49;53.61
73566;BME280;61846;52.970;-3.168;2023-12-20T03:11:56;100965.25;;;9.75;53.90
73566;BME280;61846;52.970;-3.168;2023-12-20T03:14:21;100965.62;;;9.95;53.01
73566;BME280;61846;52.970;-3.168;2023-12-20T03:16:49;100964.47;;;9.05;54.39
73566;BME280;61846;52.970;-3.168;2023-12-20T03:19:12;100968.85;;;9.32;55.02
73566;BME280;61846;52.970;-3.168;2023-12-20T03:21:38;100965.34;;;9.33;54.62
73566;BME280;61846;52.970;-3.168;2023-12-20T03:24:04;100962.19;;;8.83;55.69
73566;BME280;61846;52.970;-3.168;2023-12-20T03:26:29;100961.44;;;9.16;54.75
73566;BME280;61846;52.970;-3.168;2023-12-20T03:28:54;100964.98;;;9.26;54.92
73566;BME280;61846;52.970;-3.168;2023-12-20T03:31:20;100976.92;;;8.92;55.97
73566;BME280;61846;52.970;-3.168;2023-12-20T03:33:45;100968.24;;;9.01;56.47
73566;BME280;61846;52.970;-3.168;2023-12-20T03:36:11;100971.35;;;8.19;59.18
73566;BME280;61846;52.970;-3.168;2023-12-20T03:38:36;100970.37;;;8.01;58.84
73566;BME280;61846;52.970;-3.168;2023-12-20T03:41:02;100971.47;;;8.50;58.41
73566;BME280;61846;52.970;-3.168;2023-12-20T03:43:27;100970.70;;;8.19;57.66
73566;BME280;61846;52.970;-3.168;2023-12-20T03:45:53;100973.76;;;9.62;54.80
73566;BME280;61846;52.970;-3.168;2023-12-20T03:48:19;100968.70;;;8.67;57.77
73566;BME280;61846;52.970;-3.168;2023-12-20T03:50:44;100963.69;;;8.85;58.31
73566;BME280;61846;52.970;-3.168;2023-12-20T03:53:10;100967.41;;;9.42;57.02
73566;BME280;61846;52.970;-3.168;2023-12-20T03:55:36;100972.97;;;9.13;56.95
73566;BME280;61846;52.970;-3.168;2023-12-20T03:58:01;100970.89;;;8.73;58.08
73566;BME280;61846;52.970;-3.168;2023-12-20T04:00:27;100976.29;;;9.01;57.94
73566;BME280;61846;52.970;-3.168;2023-12-20T04:02:52;100965.82;;;8.23;59.89
73566;BME280;61846;52.970;-3.168;2023-12-20T04:05:18;100969.90;;;7.97;60.69
73566;BME280;61846;52.970;-3.168;2023-12-20T04:07:44;100965.14;;;7.59;61.57
73566;BME280;61846;52.970;-3.168;2023-12-20T04:10:09;100956.36;;;7.83;60.28
73566;BME280;61846;52.970;-3.168;2023-12-20T04:12:35;100964.05;;;7.89;60.44
73566;BME280;61846;52.970;-3.168;2023-12-20T04:15:00;100951.07;;;7.41;63.01
73566;BME280;61846;52.970;-3.168;2023-12-20T04:17:26;100954.10;;;8.03;60.30
73566;BME280;61846;52.970;-3.168;2023-12-20T04:19:52;100952.17;;;8.94;58.72
73566;BME280;61846;52.970;-3.168;2023-12-20T04:22:18;100937.57;;;7.87;59.67
73566;BME280;61846;52.970;-3.168;2023-12-20T04:24:43;100926.34;;;7.72;61.85
73566;BME280;61846;52.970;-3.168;2023-12-20T04:27:09;100929.59;;;7.50;61.94
73566;BME280;61846;52.970;-3.168;2023-12-20T04:29:34;100933.98;;;7.53;61.95
73566;BME280;61846;52.970;-3.168;2023-12-20T04:32:00;100946.60;;;7.45;63.57
73566;BME280;61846;52.970;-3.168;2023-12-20T04:34:25;100951.87;;;7.69;61.56
73566;BME280;61846;52.970;-3.168;2023-12-20T04:36:51;100936.82;;;7.14;63.96
73566;BME280;61846;52.970;-3.168;2023-12-20T04:39:17;100943.82;;;7.62;62.45
73566;BME280;61846;52.970;-3.168;2023-12-20T04:41:42;100948.22;;;7.35;63.53
73566;BME280;61846;52.970;-3.168;2023-12-20T04:44:08;100958.25;;;7.31;64.48
73566;BME280;61846;52.970;-3.168;2023-12-20T04:46:33;100959.88;;;7.25;65.86
73566;BME280;61846;52.970;-3.168;2023-12-20T04:48:59;100948.28;;;7.56;64.83
73566;BME280;61846;52.970;-3.168;2023-12-20T04:51:24;100929.54;;;7.39;66.03
73566;BME280;61846;52.970;-3.168;2023-12-20T04:53:50;100941.80;;;7.42;65.09
73566;BME280;61846;52.970;-3.168;2023-12-20T04:56:16;100932.69;;;7.66;64.83
73566;BME280;61846;52.970;-3.168;2023-12-20T04:58:42;100938.51;;;7.92;62.51
73566;BME280;61846;52.970;-3.168;2023-12-20T05:01:07;100934.92;;;8.84;60.20
73566;BME280;61846;52.970;-3.168;2023-12-20T05:03:32;100933.54;;;8.27;61.50
73566;BME280;61846;52.970;-3.168;2023-12-20T05:05:57;100917.93;;;8.62;60.05
73566;BME280;61846;52.970;-3.168;2023-12-20T05:08:23;100915.30;;;8.41;61.17
73566;BME280;61846;52.970;-3.168;2023-12-20T05:10:49;100911.26;;;8.00;62.58
73566;BME280;61846;52.970;-3.168;2023-12-20T05:13:14;100910.05;;;7.92;62.24
73566;BME280;61846;52.970;-3.168;2023-12-20T05:15:40;100924.58;;;7.56;62.87
73566;BME280;61846;52.970;-3.168;2023-12-20T05:18:05;100915.28;;;7.80;61.88
73566;BME280;61846;52.970;-3.168;2023-12-20T05:20:31;100913.41;;;7.39;63.87
73566;BME280;61846;52.970;-3.168;2023-12-20T05:22:56;100898.38;;;8.23;61.88
73566;BME280;61846;52.970;-3.168;2023-12-20T05:25:24;100914.04;;;7.32;62.90
73566;BME280;61846;52.970;-3.168;2023-12-20T05:27:48;100892.46;;;8.39;60.04
73566;BME280;61846;52.970;-3.168;2023-12-20T05:30:13;100875.15;;;7.66;61.95
73566;BME280;61846;52.970;-3.168;2023-12-20T05:32:38;100881.64;;;7.43;62.20
73566;BME280;61846;52.970;-3.168;2023-12-20T05:35:04;100884.78;;;8.22;61.06
73566;BME280;61846;52.970;-3.168;2023-12-20T05:37:30;100885.94;;;8.78;58.01
73566;BME280;61846;52.970;-3.168;2023-12-20T05:39:55;100903.95;;;8.59;59.50
73566;BME280;61846;52.970;-3.168;2023-12-20T05:42:21;100893.97;;;8.27;60.05
73566;BME280;61846;52.970;-3.168;2023-12-20T05:44:46;100896.19;;;9.17;57.43
73566;BME280;61846;52.970;-3.168;2023-12-20T05:47:12;100894.07;;;8.96;57.40
73566;BME280;61846;52.970;-3.168;2023-12-20T05:49:37;100897.32;;;7.91;59.84
73566;BME280;61846;52.970;-3.168;2023-12-20T05:52:03;100905.36;;;9.40;56.98
73566;BME280;61846;52.970;-3.168;2023-12-20T05:54:29;100887.46;;;8.76;57.97
73566;BME280;61846;52.970;-3.168;2023-12-20T05:56:54;100886.66;;;8.97;57.50
73566;BME280;61846;52.970;-3.168;2023-12-20T05:59:20;100881.58;;;8.49;58.49
73566;BME280;61846;52.970;-3.168;2023-12-20T06:01:45;100870.04;;;9.27;56.90
73566;BME280;61846;52.970;-3.168;2023-12-20T06:04:11;100866.63;;;9.29;56.41
73566;BME280;61846;52.970;-3.168;2023-12-20T06:06:41;100862.22;;;8.14;60.15
73566;BME280;61846;52.970;-3.168;2023-12-20T06:09:02;100859.70;;;8.31;61.07
73566;BME280;61846;52.970;-3.168;2023-12-20T06:11:28;100855.51;;;9.21;58.41
73566;BME280;61846;52.970;-3.168;2023-12-20T06:13:53;100854.71;;;8.54;59.29
73566;BME280;61846;52.970;-3.168;2023-12-20T06:16:18;100855.14;;;8.65;59.26
73566;BME280;61846;52.970;-3.168;2023-12-20T06:18:44;100867.39;;;7.90;61.93
73566;BME280;61846;52.970;-3.168;2023-12-20T06:21:09;100873.56;;;7.80;62.25
73566;BME280;61846;52.970;-3.168;2023-12-20T06:23:35;100864.48;;;6.89;64.76
73566;BME280;61846;52.970;-3.168;2023-12-20T06:26:00;100868.83;;;7.70;63.57
73566;BME280;61846;52.970;-3.168;2023-12-20T06:28:26;100868.12;;;7.98;62.15
73566;BME280;61846;52.970;-3.168;2023-12-20T06:30:51;100875.86;;;8.13;61.13
73566;BME280;61846;52.970;-3.168;2023-12-20T06:33:17;100869.19;;;8.02;60.59
73566;BME280;61846;52.970;-3.168;2023-12-20T06:35:42;100876.66;;;7.59;60.69
73566;BME280;61846;52.970;-3.168;2023-12-20T06:38:07;100868.79;;;8.43;60.13
73566;BME280;61846;52.970;-3.168;2023-12-20T06:40:33;100877.42;;;8.21;60.44
73566;BME280;61846;52.970;-3.168;2023-12-20T06:42:58;100887.77;;;8.07;60.67
73566;BME280;61846;52.970;-3.168;2023-12-20T06:45:24;100902.54;;;7.68;62.14
73566;BME280;61846;52.970;-3.168;2023-12-20T06:47:49;100894.18;;;8.42;60.44
73566;BME280;61846;52.970;-3.168;2023-12-20T06:50:15;100897.17;;;9.30;58.20
73566;BME280;61846;52.970;-3.168;2023-12-20T06:52:40;100898.07;;;7.86;61.22
73566;BME280;61846;52.970;-3.168;2023-12-20T06:55:06;100902.72;;;8.13;63.26
73566;BME280;61846;52.970;-3.168;2023-12-20T06:57:31;100896.97;;;7.77;64.57
73566;BME280;61846;52.970;-3.168;2023-12-20T06:59:57;100887.08;;;7.16;64.33
73566;BME280;61846;52.970;-3.168;2023-12-20T07:02:22;100877.71;;;7.78;63.22
73566;BME280;61846;52.970;-3.168;2023-12-20T07:04:47;100863.79;;;8.23;61.03
73566;BME280;61846;52.970;-3.168;2023-12-20T07:07:13;100866.09;;;8.91;60.34
73566;BME280;61846;52.970;-3.168;2023-12-20T07:09:39;100872.22;;;8.83;59.59
73566;BME280;61846;52.970;-3.168;2023-12-20T07:12:05;100884.51;;;8.27;59.57
73566;BME280;61846;52.970;-3.168;2023-12-20T07:14:30;100884.62;;;8.96;58.37
73566;BME280;61846;52.970;-3.168;2023-12-20T07:16:55;100879.99;;;9.11;57.08
73566;BME280;61846;52.970;-3.168;2023-12-20T07:19:21;100885.88;;;8.14;59.07
73566;BME280;61846;52.970;-3.168;2023-12-20T07:21:47;100889.20;;;8.17;59.93
73566;BME280;61846;52.970;-3.168;2023-12-20T07:24:12;100879.09;;;7.90;60.99
73566;BME280;61846;52.970;-3.168;2023-12-20T07:26:38;100877.68;;;8.51;58.65
73566;BME280;61846;52.970;-3.168;2023-12-20T07:29:03;100883.51;;;7.96;59.14
73566;BME280;61846;52.970;-3.168;2023-12-20T07:31:29;100900.13;;;9.14;57.09
73566;BME280;61846;52.970;-3.168;2023-12-20T07:33:54;100906.06;;;9.02;56.76
73566;BME280;61846;52.970;-3.168;2023-12-20T07:36:20;100895.48;;;8.95;56.68
73566;BME280;61846;52.970;-3.168;2023-12-20T07:38:46;100887.61;;;8.58;58.05
73566;BME280;61846;52.970;-3.168;2023-12-20T07:41:11;100884.32;;;8.80;57.14
73566;BME280;61846;52.970;-3.168;2023-12-20T07:43:37;100901.89;;;8.20;58.79
73566;BME280;61846;52.970;-3.168;2023-12-20T07:46:06;100908.27;;;8.37;59.42
73566;BME280;61846;52.970;-3.168;2023-12-20T07:48:28;100889.21;;;8.47;60.02
73566;BME280;61846;52.970;-3.168;2023-12-20T07:50:54;100880.08;;;7.78;60.91
73566;BME280;61846;52.970;-3.168;2023-12-20T07:53:19;100873.29;;;8.94;59.31
73566;BME280;61846;52.970;-3.168;2023-12-20T07:55:45;100868.08;;;8.75;60.16
73566;BME280;61846;52.970;-3.168;2023-12-20T07:58:10;100868.02;;;9.08;58.00
73566;BME280;61846;52.970;-3.168;2023-12-20T08:00:35;100868.88;;;8.89;58.87
73566;BME280;61846;52.970;-3.168;2023-12-20T08:03:01;100855.20;;;9.37;56.97
73566;BME280;61846;52.970;-3.168;2023-12-20T08:05:26;100861.09;;;8.70;59.67
73566;BME280;61846;52.970;-3.168;2023-12-20T08:07:52;100866.66;;;9.78;56.47
73566;BME280;61846;52.970;-3.168;2023-12-20T08:10:19;100872.29;;;9.32;57.89
73566;BME280;61846;52.970;-3.168;2023-12-20T08:12:43;100880.21;;;8.65;60.95
73566;BME280;61846;52.970;-3.168;2023-12-20T08:15:09;100880.47;;;8.17;61.74
73566;BME280;61846;52.970;-3.168;2023-12-20T08:17:34;100879.56;;;8.56;60.86
73566;BME280;61846;52.970;-3.168;2023-12-20T08:19:59;100877.56;;;8.47;61.79
73566;BME280;61846;52.970;-3.168;2023-12-20T08:22:25;100881.39;;;8.33;61.88
73566;BME280;61846;52.970;-3.168;2023-12-20T08:24:51;100876.99;;;8.47;61.15
73566;BME280;61846;52.970;-3.168;2023-12-20T08:27:17;100875.66;;;8.58;61.59
73566;BME280;61846;52.970;-3.168;2023-12-20T08:29:43;100880.35;;;8.60;61.52
73566;BME280;61846;52.970;-3.168;2023-12-20T08:32:07;100871.18;;;8.59;61.86
73566;BME280;61846;52.970;-3.168;2023-12-20T08:34:33;100860.72;;;9.05;58.51
73566;BME280;61846;52.970;-3.168;2023-12-20T08:36:58;100851.80;;;9.37;58.13
73566;BME280;61846;52.970;-3.168;2023-12-20T08:39:24;100862.56;;;9.54;57.88
73566;BME280;61846;52.970;-3.168;2023-12-20T08:41:49;100859.13;;;10.29;55.86
73566;BME280;61846;52.970;-3.168;2023-12-20T08:44:15;100868.07;;;9.69;56.22
73566;BME280;61846;52.970;-3.168;2023-12-20T08:46:40;100855.85;;;9.36;58.77
73566;BME280;61846;52.970;-3.168;2023-12-20T08:49:06;100857.16;;;9.33;58.96
73566;BME280;61846;52.970;-3.168;2023-12-20T08:51:32;100863.93;;;9.38;58.32
73566;BME280;61846;52.970;-3.168;2023-12-20T08:53:57;100859.92;;;9.12;58.87
73566;BME280;61846;52.970;-3.168;2023-12-20T08:56:23;100857.38;;;9.68;58.05
73566;BME280;61846;52.970;-3.168;2023-12-20T08:58:48;100865.46;;;10.25;56.46
73566;BME280;61846;52.970;-3.168;2023-12-20T09:01:14;100867.69;;;11.00;54.15
73566;BME280;61846;52.970;-3.168;2023-12-20T09:03:40;100870.44;;;11.22;53.21
73566;BME280;61846;52.970;-3.168;2023-12-20T09:06:06;100868.86;;;10.84;55.43
73566;BME280;61846;52.970;-3.168;2023-12-20T09:08:30;100870.72;;;10.44;56.82
73566;BME280;61846;52.970;-3.168;2023-12-20T09:10:56;100881.73;;;11.37;54.12
73566;BME280;61846;52.970;-3.168;2023-12-20T09:13:21;100884.95;;;11.05;54.03
73566;BME280;61846;52.970;-3.168;2023-12-20T09:15:47;100875.48;;;10.89;56.63
73566;BME280;61846;52.970;-3.168;2023-12-20T09:18:13;100867.18;;;9.53;60.03
73566;BME280;61846;52.970;-3.168;2023-12-20T09:20:38;100858.02;;;9.15;61.07
73566;BME280;61846;52.970;-3.168;2023-12-20T09:23:03;100857.59;;;9.55;61.14
73566;BME280;61846;52.970;-3.168;2023-12-20T09:25:28;100859.06;;;9.75;60.15
73566;BME280;61846;52.970;-3.168;2023-12-20T09:27:54;100851.67;;;10.75;57.56
73566;BME280;61846;52.970;-3.168;2023-12-20T09:30:19;100850.55;;;11.00;55.83
73566;BME280;61846;52.970;-3.168;2023-12-20T09:32:45;100846.89;;;10.53;59.18
73566;BME280;61846;52.970;-3.168;2023-12-20T09:35:10;100839.62;;;9.75;60.19
73566;BME280;61846;52.970;-3.168;2023-12-20T09:37:36;100844.71;;;10.26;59.04
73566;BME280;61846;52.970;-3.168;2023-12-20T09:40:01;100832.21;;;10.38;59.15
73566;BME280;61846;52.970;-3.168;2023-12-20T09:42:34;100831.71;;;10.87;57.61
73566;BME280;61846;52.970;-3.168;2023-12-20T09:44:52;100829.08;;;10.23;59.96
73566;BME280;61846;52.970;-3.168;2023-12-20T09:47:18;100810.31;;;10.09;60.63
73566;BME280;61846;52.970;-3.168;2023-12-20T09:49:44;100803.11;;;9.89;61.30
73566;BME280;61846;52.970;-3.168;2023-12-20T09:52:09;100803.82;;;9.40;62.58
73566;BME280;61846;52.970;-3.168;2023-12-20T09:54:33;100799.13;;;8.62;65.80
73566;BME280;61846;52.970;-3.168;2023-12-20T09:56:59;100796.71;;;10.04;62.12
73566;BME280;61846;52.970;-3.168;2023-12-20T09:59:25;100801.49;;;9.40;62.91
73566;BME280;61846;52.970;-3.168;2023-12-20T10:01:51;100809.79;;;9.85;61.55
73566;BME280;61846;52.970;-3.168;2023-12-20T10:04:16;100822.24;;;9.60;62.04
73566;BME280;61846;52.970;-3.168;2023-12-20T10:06:43;100820.52;;;9.38;62.29
73566;BME280;61846;52.970;-3.168;2023-12-20T10:09:07;100834.20;;;9.56;63.25
73566;BME280;61846;52.970;-3.168;2023-12-20T10:11:32;100827.96;;;9.03;63.13
73566;BME280;61846;52.970;-3.168;2023-12-20T10:13:59;100828.58;;;8.88;64.24
73566;BME280;61846;52.970;-3.168;2023-12-20T10:16:25;100827.46;;;8.44;65.46
73566;BME280;61846;52.970;-3.168;2023-12-20T10:18:49;100819.46;;;9.28;62.90
73566;BME280;61846;52.970;-3.168;2023-12-20T10:21:15;100823.51;;;9.28;62.06
73566;BME280;61846;52.970;-3.168;2023-12-20T10:23:40;100812.77;;;9.30;62.16
73566;BME280;61846;52.970;-3.168;2023-12-20T10:26:06;100810.27;;;9.10;63.47
73566;BME280;61846;52.970;-3.168;2023-12-20T10:28:33;100811.20;;;9.21;62.12
73566;BME280;61846;52.970;-3.168;2023-12-20T10:30:56;100805.85;;;10.20;59.52
73566;BME280;61846;52.970;-3.168;2023-12-20T10:33:25;100809.72;;;10.71;64.71
73566;BME280;61846;52.970;-3.168;2023-12-20T10:35:47;100796.83;;;10.65;57.29
73566;BME280;61846;52.970;-3.168;2023-12-20T10:38:14;100780.12;;;10.38;58.16
73566;BME280;61846;52.970;-3.168;2023-12-20T10:40:38;100785.15;;;9.31;61.55
73566;BME280;61846;52.970;-3.168;2023-12-20T10:43:04;100782.26;;;9.47;61.44
73566;BME280;61846;52.970;-3.168;2023-12-20T10:45:29;100766.22;;;9.27;62.45
73566;BME280;61846;52.970;-3.168;2023-12-20T10:47:55;100765.73;;;9.17;63.56
73566;BME280;61846;52.970;-3.168;2023-12-20T10:50:20;100751.24;;;9.12;62.90
73566;BME280;61846;52.970;-3.168;2023-12-20T10:52:45;100749.78;;;9.72;62.07
73566;BME280;61846;52.970;-3.168;2023-12-20T10:55:10;100747.50;;;9.50;62.66
73566;BME280;61846;52.970;-3.168;2023-12-20T10:57:36;100745.56;;;10.00;62.09
73566;BME280;61846;52.970;-3.168;2023-12-20T11:00:02;100740.90;;;9.24;65.10
73566;BME280;61846;52.970;-3.168;2023-12-20T11:02:28;100737.56;;;9.21;64.07
73566;BME280;61846;52.970;-3.168;2023-12-20T11:05:03;100732.52;;;9.13;64.86
73566;BME280;61846;52.970;-3.168;2023-12-20T11:07:23;100712.61;;;9.13;64.22
73566;BME280;61846;52.970;-3.168;2023-12-20T11:09:49;100730.46;;;9.16;64.30
73566;BME280;61846;52.970;-3.168;2023-12-20T11:12:12;100712.98;;;9.66;62.98
73566;BME280;61846;52.970;-3.168;2023-12-20T11:14:40;100721.86;;;9.15;64.40
73566;BME280;61846;52.970;-3.168;2023-12-20T11:17:05;100726.10;;;9.96;64.21
73566;BME280;61846;52.970;-3.168;2023-12-20T11:19:25;100716.21;;;9.74;63.87
73566;BME280;61846;52.970;-3.168;2023-12-20T11:21:51;100723.91;;;9.18;64.46
73566;BME280;61846;52.970;-3.168;2023-12-20T11:24:21;100722.09;;;9.62;64.20
73566;BME280;61846;52.970;-3.168;2023-12-20T11:26:47;100719.46;;;9.94;64.54
73566;BME280;61846;52.970;-3.168;2023-12-20T11:31:40;100711.60;;;8.98;66.97
73566;BME280;61846;52.970;-3.168;2023-12-20T11:36:25;100684.07;;;9.62;65.97
73566;BME280;61846;52.970;-3.168;2023-12-20T11:38:55;100674.82;;;10.19;64.51
73566;BME280;61846;52.970;-3.168;2023-12-20T11:41:16;100658.02;;;10.17;64.57
73566;BME280;61846;52.970;-3.168;2023-12-20T11:43:41;100671.89;;;10.50;63.23
73566;BME280;61846;52.970;-3.168;2023-12-20T11:46:07;100662.83;;;9.52;65.62
73566;BME280;61846;52.970;-3.168;2023-12-20T11:48:32;100671.20;;;10.05;64.86
73566;BME280;61846;52.970;-3.168;2023-12-20T11:50:57;100655.07;;;10.21;63.03
73566;BME280;61846;52.970;-3.168;2023-12-20T11:53:23;100664.55;;;10.72;62.42
73566;BME280;61846;52.970;-3.168;2023-12-20T11:55:49;100672.05;;;10.60;61.62
73566;BME280;61846;52.970;-3.168;2023-12-20T11:58:14;100673.26;;;11.01;60.73
73566;BME280;61846;52.970;-3.168;2023-12-20T12:00:39;100658.12;;;11.34;60.01
73566;BME280;61846;52.970;-3.168;2023-12-20T12:03:05;100666.76;;;11.12;59.64
73566;BME280;61846;52.970;-3.168;2023-12-20T12:05:31;100667.27;;;10.82;59.90
73566;BME280;61846;52.970;-3.168;2023-12-20T12:07:56;100654.10;;;10.49;61.19
73566;BME280;61846;52.970;-3.168;2023-12-20T12:10:22;100659.53;;;10.18;62.17
73566;BME280;61846;52.970;-3.168;2023-12-20T12:12:47;100658.92;;;9.56;64.87
73566;BME280;61846;52.970;-3.168;2023-12-20T12:15:13;100641.52;;;8.87;66.81
73566;BME280;61846;52.970;-3.168;2023-12-20T12:17:38;100646.52;;;9.38;65.70
73566;BME280;61846;52.970;-3.168;2023-12-20T12:20:05;100647.90;;;9.27;66.25
73566;BME280;61846;52.970;-3.168;2023-12-20T12:22:30;100637.32;;;9.50;65.43
73566;BME280;61846;52.970;-3.168;2023-12-20T12:24:59;100646.76;;;9.40;66.64
73566;BME280;61846;52.970;-3.168;2023-12-20T12:27:20;100614.48;;;9.18;66.84
73566;BME280;61846;52.970;-3.168;2023-12-20T12:32:11;100607.30;;;8.95;68.81
73566;BME280;61846;52.970;-3.168;2023-12-20T12:34:37;100612.75;;;9.46;67.44
73566;BME280;61846;52.970;-3.168;2023-12-20T12:37:04;100599.77;;;9.01;68.31
73566;BME280;61846;52.970;-3.168;2023-12-20T12:39:29;100600.24;;;9.87;66.05
73566;BME280;61846;52.970;-3.168;2023-12-20T12:41:54;100579.21;;;10.25;65.64
73566;BME280;61846;52.970;-3.168;2023-12-20T12:44:19;100583.73;;;9.98;64.62